Time;durP1;ratioP1;P1;durP2;ratioP2;P2;SDS_P1;SDS_P2;PMS_P1;PMS_P2;Temp;Humidity;BMP_temperature;BMP_pressure;BME280_temperature;BME280_humidity;BME280_pressure;Samples;Min_cycle;Max_cycle;Signal;HPM_P1;HPM_P2
2023/04/25 00:00:06;;;;;;;30.90;24.80;;;;;;;;;;5059731;28;20100;-92
2023/04/25 00:02:34;;;;;;;27.55;23.75;;;;;;;;;;5059572;28;20108;-89
2023/04/25 00:05:01;;;;;;;28.00;23.83;;;;;;;;;;5059379;28;20107;-89
2023/04/25 00:07:27;;;;;;;29.00;24.67;;;;;;;;;;5041757;28;20025;-89
2023/04/25 00:09:53;;;;;;;31.77;25.00;;;;;;;;;;5059608;28;20393;-89
2023/04/25 00:12:19;;;;;;;27.65;24.23;;;;;;;;;;5059150;28;20104;-89
2023/04/25 00:14:46;;;;;;;30.70;25.50;;;;;;;;;;5041453;28;20032;-89
2023/04/25 00:17:12;;;;;;;29.58;25.98;;;;;;;;;;5041776;28;20423;-91
2023/04/25 00:19:38;;;;;;;29.63;26.02;;;;;;;;;;5041605;28;20343;-90
2023/04/25 00:22:05;;;;;;;37.47;27.50;;;;;;;;;;5041480;28;20029;-86
2023/04/25 00:24:31;;;;;;;34.28;27.05;;;;;;;;;;5043092;28;20026;-94
2023/04/25 00:26:57;;;;;;;34.33;28.13;;;;;;;;;;5079115;28;20127;-93
2023/04/25 00:29:23;;;;;;;35.88;28.27;;;;;;;;;;5061343;28;20425;-93
2023/04/25 00:31:49;;;;;;;36.92;29.05;;;;;;;;;;5078693;28;20436;-93
2023/04/25 00:34:15;;;;;;;35.53;28.80;;;;;;;;;;5079074;28;20028;-93
2023/04/25 00:36:41;;;;;;;35.03;29.55;;;;;;;;;;5078783;28;20099;-93
2023/04/25 00:39:08;;;;;;;32.63;29.00;;;;;;;;;;5061098;28;20021;-93
2023/04/25 00:41:34;;;;;;;36.88;30.67;;;;;;;;;;5078555;28;20373;-94
2023/04/25 00:44:01;;;;;;;34.20;28.60;;;;;;;;;;5078476;28;20040;-92
2023/04/25 00:46:27;;;;;;;33.35;25.02;;;;;;;;;;5060081;28;20032;-92
2023/04/25 00:48:53;;;;;;;35.13;24.13;;;;;;;;;;5058834;28;20487;-94
2023/04/25 00:51:22;;;;;;;29.35;23.38;;;;;;;;;;5057669;28;20115;-93
2023/04/25 00:53:50;;;;;;;30.52;23.15;;;;;;;;;;5058681;28;20021;-93
2023/04/25 00:56:16;;;;;;;27.52;22.42;;;;;;;;;;5057314;28;20331;-92
2023/04/25 00:58:43;;;;;;;27.92;21.10;;;;;;;;;;5058338;28;20108;-93
2023/04/25 01:01:09;;;;;;;29.27;21.15;;;;;;;;;;5058255;28;20029;-94
2023/04/25 01:03:40;;;;;;;28.95;20.85;;;;;;;;;;5055902;28;20027;-92
2023/04/25 01:06:07;;;;;;;29.33;21.98;;;;;;;;;;5040688;28;20029;-92
2023/04/25 01:08:34;;;;;;;28.20;22.13;;;;;;;;;;5040374;28;20074;-92
2023/04/25 01:11:00;;;;;;;30.40;22.20;;;;;;;;;;5040762;28;20021;-93
2023/04/25 01:13:27;;;;;;;27.15;20.23;;;;;;;;;;5041247;28;20033;-94
2023/04/25 01:15:53;;;;;;;23.08;19.15;;;;;;;;;;5040374;28;20033;-93
2023/04/25 01:18:20;;;;;;;23.35;19.88;;;;;;;;;;5040424;28;20060;-93
2023/04/25 01:20:47;;;;;;;22.55;17.65;;;;;;;;;;5058146;28;20021;-91
2023/04/25 01:23:13;;;;;;;24.02;18.80;;;;;;;;;;5062703;28;20024;-93
2023/04/25 01:25:40;;;;;;;22.10;18.38;;;;;;;;;;5060408;28;20035;-92
2023/04/25 01:28:06;;;;;;;22.27;18.15;;;;;;;;;;5077966;28;20024;-91
2023/04/25 01:30:32;;;;;;;24.10;17.95;;;;;;;;;;5060216;28;20318;-91
2023/04/25 01:32:59;;;;;;;22.48;17.98;;;;;;;;;;5077643;28;20044;-91
2023/04/25 01:35:25;;;;;;;22.63;18.23;;;;;;;;;;5060173;28;20115;-90
2023/04/25 01:37:52;;;;;;;21.45;18.33;;;;;;;;;;5077724;28;20417;-91
2023/04/25 01:40:18;;;;;;;23.42;18.50;;;;;;;;;;5078044;28;20025;-90
2023/04/25 01:42:45;;;;;;;23.92;19.13;;;;;;;;;;5057646;28;20038;-91
2023/04/25 01:45:12;;;;;;;21.77;18.10;;;;;;;;;;5057644;28;20025;-91
2023/04/25 01:47:39;;;;;;;25.63;19.50;;;;;;;;;;5057498;28;20033;-91
2023/04/25 01:50:06;;;;;;;22.05;19.10;;;;;;;;;;5039942;28;20033;-90
2023/04/25 01:52:32;;;;;;;22.17;18.25;;;;;;;;;;5040109;28;20053;-90
2023/04/25 01:55:00;;;;;;;21.23;17.50;;;;;;;;;;5057365;28;20429;-90
2023/04/25 01:57:26;;;;;;;22.60;17.38;;;;;;;;;;5057373;28;20056;-91
2023/04/25 01:59:54;;;;;;;20.90;17.35;;;;;;;;;;5057184;28;20097;-91
2023/04/25 02:02:20;;;;;;;20.98;17.40;;;;;;;;;;5039938;28;20029;-91
2023/04/25 02:04:46;;;;;;;21.75;18.50;;;;;;;;;;5057114;28;20421;-91
2023/04/25 02:07:12;;;;;;;22.95;18.27;;;;;;;;;;5039932;28;20383;-92
2023/04/25 02:09:38;;;;;;;22.60;17.63;;;;;;;;;;5039852;28;20029;-94
2023/04/25 02:12:05;;;;;;;29.05;23.85;;;;;;;;;;5057395;28;20055;-94
2023/04/25 02:14:31;;;;;;;30.77;27.48;;;;;;;;;;5057573;28;20037;-92
2023/04/25 02:16:57;;;;;;;27.15;22.92;;;;;;;;;;5039829;28;20029;-92
2023/04/25 02:19:23;;;;;;;32.00;27.88;;;;;;;;;;5057496;28;20354;-93
2023/04/25 02:21:49;;;;;;;31.40;23.30;;;;;;;;;;5039654;28;20351;-91
2023/04/25 02:24:15;;;;;;;21.70;18.45;;;;;;;;;;5039551;28;20419;-92
2023/04/25 02:26:41;;;;;;;17.27;14.82;;;;;;;;;;5057341;28;20033;-92
2023/04/25 02:29:07;;;;;;;12.63;10.75;;;;;;;;;;5057027;28;20403;-93
2023/04/25 02:31:33;;;;;;;11.93;10.02;;;;;;;;;;5057253;28;20126;-92
2023/04/25 02:33:59;;;;;;;9.15;8.15;;;;;;;;;;5057020;28;20033;-93
2023/04/25 02:36:26;;;;;;;11.35;9.13;;;;;;;;;;5039573;28;20434;-92
2023/04/25 02:38:52;;;;;;;9.88;8.38;;;;;;;;;;5057257;28;20100;-92
2023/04/25 02:41:18;;;;;;;10.35;7.72;;;;;;;;;;5056994;28;20017;-92
2023/04/25 02:43:44;;;;;;;8.75;7.85;;;;;;;;;;5051008;28;20123;-92
2023/04/25 02:46:10;;;;;;;10.70;8.15;;;;;;;;;;5077050;28;20028;-91
2023/04/25 02:48:36;;;;;;;11.50;7.90;;;;;;;;;;5077292;28;20028;-91
2023/04/25 02:51:02;;;;;;;11.95;8.00;;;;;;;;;;5077048;28;20471;-91
2023/04/25 02:53:28;;;;;;;10.07;8.43;;;;;;;;;;5076997;28;20025;-93
2023/04/25 02:55:58;;;;;;;10.00;8.50;;;;;;;;;;5059213;28;20039;-91
2023/04/25 02:58:24;;;;;;;10.57;8.73;;;;;;;;;;5059296;28;20060;-93
2023/04/25 03:00:50;;;;;;;15.20;10.50;;;;;;;;;;5076641;28;20314;-93
2023/04/25 03:03:21;;;;;;;12.18;9.75;;;;;;;;;;5076207;28;20028;-92
2023/04/25 03:05:48;;;;;;;12.23;10.40;;;;;;;;;;5059211;28;20067;-91
2023/04/25 03:08:14;;;;;;;11.02;9.52;;;;;;;;;;5059364;28;20315;-91
2023/04/25 03:10:41;;;;;;;13.35;10.55;;;;;;;;;;5078047;28;20029;-91
2023/04/25 03:13:07;;;;;;;13.25;10.07;;;;;;;;;;5080232;28;20406;-90
2023/04/25 03:15:33;;;;;;;11.38;9.63;;;;;;;;;;5062805;28;20028;-90
2023/04/25 03:17:59;;;;;;;11.25;8.75;;;;;;;;;;5080241;28;20387;-90
2023/04/25 03:20:25;;;;;;;11.35;8.93;;;;;;;;;;5076203;28;20021;-91
2023/04/25 03:22:51;;;;;;;10.73;8.68;;;;;;;;;;5069509;28;20025;-91
2023/04/25 03:25:17;;;;;;;13.57;8.10;;;;;;;;;;5073439;28;20074;-90
2023/04/25 03:27:43;;;;;;;9.05;7.53;;;;;;;;;;5080180;28;20506;-93
2023/04/25 03:30:09;;;;;;;8.52;7.22;;;;;;;;;;5080440;28;20025;-93
2023/04/25 03:32:35;;;;;;;8.05;6.93;;;;;;;;;;5079923;28;20122;-94
2023/04/25 03:35:04;;;;;;;8.05;6.38;;;;;;;;;;5076489;28;20314;-93
2023/04/25 03:37:30;;;;;;;8.10;6.65;;;;;;;;;;5079863;28;20032;-93
2023/04/25 03:39:56;;;;;;;8.35;6.43;;;;;;;;;;5061972;28;20033;-93
2023/04/25 03:42:25;;;;;;;9.00;6.20;;;;;;;;;;5061263;28;20024;-94
2023/04/25 03:44:52;;;;;;;7.00;5.85;;;;;;;;;;5059845;28;20071;-93
2023/04/25 03:47:18;;;;;;;6.72;5.25;;;;;;;;;;5059760;28;20033;-95
2023/04/25 03:49:44;;;;;;;6.93;5.30;;;;;;;;;;5061784;28;20028;-94
2023/04/25 03:52:10;;;;;;;8.48;5.45;;;;;;;;;;5060665;28;20029;-95
2023/04/25 03:54:36;;;;;;;6.03;5.15;;;;;;;;;;5045815;28;20036;-95
2023/04/25 03:57:02;;;;;;;7.68;5.63;;;;;;;;;;5063613;28;20036;-94
2023/04/25 03:59:28;;;;;;;6.28;5.32;;;;;;;;;;5059333;28;20082;-94
2023/04/25 04:01:55;;;;;;;6.00;5.38;;;;;;;;;;5059605;28;20419;-94
2023/04/25 04:04:21;;;;;;;9.07;5.80;;;;;;;;;;5059437;28;20025;-92
2023/04/25 04:06:47;;;;;;;6.13;5.30;;;;;;;;;;5058532;28;20025;-93
2023/04/25 04:09:13;;;;;;;6.93;5.80;;;;;;;;;;5062304;28;20077;-93
2023/04/25 04:11:39;;;;;;;6.85;4.95;;;;;;;;;;5079678;28;20027;-91
2023/04/25 04:14:06;;;;;;;6.55;5.03;;;;;;;;;;5071979;28;20029;-94
2023/04/25 04:16:32;;;;;;;8.38;5.50;;;;;;;;;;5065486;28;20028;-94
2023/04/25 04:18:58;;;;;;;8.30;5.45;;;;;;;;;;5065184;28;20400;-93
2023/04/25 04:21:24;;;;;;;5.15;4.65;;;;;;;;;;5061558;28;20036;-93
2023/04/25 04:23:51;;;;;;;5.57;4.78;;;;;;;;;;5078636;28;20020;-93
2023/04/25 04:26:18;;;;;;;5.18;4.53;;;;;;;;;;5058856;28;20426;-93
2023/04/25 04:28:44;;;;;;;5.70;5.10;;;;;;;;;;5059280;28;20033;-94
2023/04/25 04:31:15;;;;;;;8.20;6.43;;;;;;;;;;5063922;28;20079;-92
2023/04/25 04:33:41;;;;;;;8.98;6.20;;;;;;;;;;5055180;28;20040;-93
2023/04/25 04:36:07;;;;;;;8.88;6.13;;;;;;;;;;5067180;28;20044;-93
2023/04/25 04:38:33;;;;;;;9.73;6.20;;;;;;;;;;5062880;28;20029;-94
2023/04/25 04:41:00;;;;;;;8.75;5.18;;;;;;;;;;5057702;28;20446;-94
2023/04/25 04:49:34;;;;;;;8.60;6.10;;;;;;;;;;5078796;28;20338;-94
2023/04/25 04:52:00;;;;;;;7.43;5.10;;;;;;;;;;5076976;28;20028;-94
2023/04/25 04:54:26;;;;;;;11.13;6.20;;;;;;;;;;5057580;28;20403;-94
2023/04/25 04:56:53;;;;;;;6.95;4.38;;;;;;;;;;5058483;28;20041;-94
2023/04/25 04:59:19;;;;;;;5.40;4.07;;;;;;;;;;5074343;28;20017;-95
2023/04/25 05:01:46;;;;;;;5.30;4.25;;;;;;;;;;5060562;28;20040;-95
2023/04/25 05:04:12;;;;;;;7.03;5.20;;;;;;;;;;5060728;28;20066;-95
2023/04/25 05:06:38;;;;;;;7.22;4.50;;;;;;;;;;5060837;28;20111;-94
2023/04/25 05:09:04;;;;;;;4.78;4.10;;;;;;;;;;5059042;28;20028;-95
2023/04/25 05:11:31;;;;;;;5.78;4.18;;;;;;;;;;5058482;28;20430;-94
2023/04/25 05:13:57;;;;;;;10.13;3.88;;;;;;;;;;5057200;28;20059;-95
2023/04/25 05:16:23;;;;;;;4.90;4.05;;;;;;;;;;5049622;28;20033;-94
2023/04/25 05:18:49;;;;;;;7.28;5.03;;;;;;;;;;5058284;28;20028;-93
2023/04/25 05:21:15;;;;;;;6.63;5.03;;;;;;;;;;5062274;28;20025;-92
2023/04/25 05:23:41;;;;;;;5.03;4.47;;;;;;;;;;5078295;28;20036;-92
2023/04/25 05:26:13;;;;;;;6.00;4.57;;;;;;;;;;5078066;28;20029;-94
2023/04/25 05:28:39;;;;;;;5.43;4.43;;;;;;;;;;5078231;28;20107;-93
2023/04/25 05:31:05;;;;;;;6.72;4.30;;;;;;;;;;5077658;28;20032;-93
2023/04/25 05:33:31;;;;;;;7.95;4.47;;;;;;;;;;5077388;28;20345;-93
2023/04/25 05:35:57;;;;;;;4.65;4.00;;;;;;;;;;5078103;28;20103;-94
2023/04/25 05:38:23;;;;;;;6.32;3.85;;;;;;;;;;5067473;28;20021;-94
2023/04/25 05:40:49;;;;;;;5.45;3.90;;;;;;;;;;5056368;28;20033;-93
2023/04/25 05:49:23;;;;;;;5.63;3.60;;;;;;;;;;5057964;28;20048;-93
2023/04/25 05:51:49;;;;;;;4.38;3.83;;;;;;;;;;5072693;28;20021;-94
2023/04/25 05:54:17;;;;;;;3.97;3.25;;;;;;;;;;5040969;28;20351;-95
2023/04/25 05:56:43;;;;;;;4.10;3.63;;;;;;;;;;5041237;28;20039;-93
2023/04/25 05:59:09;;;;;;;5.97;3.72;;;;;;;;;;5044960;28;20331;-94
2023/04/25 06:01:35;;;;;;;8.02;4.20;;;;;;;;;;5059858;28;20021;-94
2023/04/25 06:04:02;;;;;;;6.45;4.40;;;;;;;;;;5077960;28;20308;-94
2023/04/25 06:06:28;;;;;;;5.32;4.10;;;;;;;;;;5073927;28;20116;-94
2023/04/25 06:08:55;;;;;;;5.38;4.10;;;;;;;;;;5040053;28;20032;-94
2023/04/25 06:11:21;;;;;;;5.53;3.95;;;;;;;;;;5041445;28;20025;-94
2023/04/25 06:16:50;;;;;;;6.07;4.43;;;;;;;;;;5076805;28;20094;-93
2023/04/25 06:19:16;;;;;;;9.35;6.38;;;;;;;;;;5059886;28;20085;-94
2023/04/25 06:21:44;;;;;;;11.35;8.38;;;;;;;;;;5077241;28;20017;-90
2023/04/25 06:24:10;;;;;;;7.30;6.07;;;;;;;;;;5059299;28;20025;-93
2023/04/25 06:26:36;;;;;;;5.85;4.38;;;;;;;;;;5075532;28;20048;-92
2023/04/25 06:29:02;;;;;;;7.70;6.63;;;;;;;;;;5059451;28;20021;-91
2023/04/25 06:31:32;;;;;;;6.95;5.03;;;;;;;;;;5058521;28;20049;-92
2023/04/25 06:33:59;;;;;;;10.10;5.80;;;;;;;;;;5059286;28;20024;-92
2023/04/25 06:36:25;;;;;;;12.93;8.68;;;;;;;;;;5044249;28;20043;-91
2023/04/25 06:38:52;;;;;;;6.72;6.05;;;;;;;;;;5076121;28;20063;-92
2023/04/25 06:41:18;;;;;;;7.93;4.60;;;;;;;;;;5059361;28;20021;-91
2023/04/25 06:50:29;;;;;;;9.23;8.07;;;;;;;;;;5061229;28;20032;-91
2023/04/25 06:52:55;;;;;;;5.68;4.78;;;;;;;;;;5072561;28;20029;-91
2023/04/25 06:55:21;;;;;;;7.95;5.05;;;;;;;;;;5069006;28;20035;-92
2023/04/25 07:01:04;;;;;;;6.72;5.30;;;;;;;;;;5061810;28;20371;-92
2023/04/25 07:03:30;;;;;;;5.95;5.03;;;;;;;;;;5044368;28;20037;-92
2023/04/25 07:05:56;;;;;;;12.70;5.47;;;;;;;;;;5054781;28;20029;-91
2023/04/25 07:08:22;;;;;;;7.38;5.68;;;;;;;;;;5079287;28;20036;-93
2023/04/25 07:10:48;;;;;;;7.28;5.80;;;;;;;;;;5044851;28;20440;-92
2023/04/25 07:16:31;;;;;;;11.13;6.55;;;;;;;;;;5070369;28;20042;-91
2023/04/25 07:18:57;;;;;;;7.72;5.47;;;;;;;;;;5061607;28;20036;-92
2023/04/25 07:21:23;;;;;;;7.72;7.03;;;;;;;;;;5045756;28;20032;-92
2023/04/25 07:23:49;;;;;;;6.07;4.85;;;;;;;;;;5063951;28;20024;-93
2023/04/25 07:26:16;;;;;;;5.88;4.57;;;;;;;;;;5079922;28;20032;-93
2023/04/25 07:32:31;;;;;;;4.03;3.58;;;;;;;;;;5072855;28;20046;-93
2023/04/25 07:34:57;;;;;;;9.02;5.13;;;;;;;;;;5060157;28;20029;-94
2023/04/25 07:37:23;;;;;;;8.98;4.80;;;;;;;;;;5059702;28;20036;-96
2023/04/25 07:39:49;;;;;;;7.20;4.40;;;;;;;;;;5082891;22;20044;-96
2023/04/25 07:42:15;;;;;;;6.95;3.72;;;;;;;;;;5081602;28;20028;-86
2023/04/25 07:44:42;;;;;;;7.15;5.93;;;;;;;;;;5077475;28;20442;-86
2023/04/25 07:47:08;;;;;;;5.07;4.57;;;;;;;;;;5057340;28;20108;-83
2023/04/25 07:49:35;;;;;;;5.53;3.53;;;;;;;;;;5070245;28;20399;-83
2023/04/25 07:52:01;;;;;;;6.25;3.70;;;;;;;;;;5061703;28;20112;-83
2023/04/25 07:54:27;;;;;;;4.85;3.70;;;;;;;;;;5079684;28;20025;-83
2023/04/25 07:56:54;;;;;;;4.05;3.65;;;;;;;;;;5060591;28;20024;-82
2023/04/25 07:59:20;;;;;;;3.92;3.53;;;;;;;;;;5079322;28;20043;-82
2023/04/25 08:01:46;;;;;;;4.10;3.33;;;;;;;;;;5061638;28;20052;-83
2023/04/25 08:04:12;;;;;;;4.07;3.55;;;;;;;;;;5076548;28;20055;-83
2023/04/25 08:06:38;;;;;;;3.75;3.30;;;;;;;;;;5079312;28;20103;-83
2023/04/25 08:09:05;;;;;;;4.90;3.45;;;;;;;;;;5079307;28;20025;-84
2023/04/25 08:11:31;;;;;;;6.60;3.58;;;;;;;;;;5060967;28;20028;-83
2023/04/25 08:13:57;;;;;;;5.72;3.42;;;;;;;;;;5078356;28;20020;-82
2023/04/25 08:16:23;;;;;;;8.10;4.65;;;;;;;;;;5078368;28;20028;-82
2023/04/25 08:18:50;;;;;;;12.40;4.63;;;;;;;;;;5061536;28;20438;-83
2023/04/25 08:21:17;;;;;;;7.78;3.65;;;;;;;;;;5078833;28;20471;-82
2023/04/25 08:23:43;;;;;;;5.97;3.60;;;;;;;;;;5078793;28;20059;-83
2023/04/25 08:26:09;;;;;;;5.45;3.90;;;;;;;;;;5060382;28;20143;-82
2023/04/25 08:28:35;;;;;;;4.28;3.30;;;;;;;;;;5078766;28;20044;-82
2023/04/25 08:31:01;;;;;;;4.10;3.10;;;;;;;;;;5078725;28;20021;-83
2023/04/25 08:33:27;;;;;;;5.45;3.50;;;;;;;;;;5078538;28;20452;-83
2023/04/25 08:35:53;;;;;;;4.30;3.35;;;;;;;;;;5060195;28;20032;-82
2023/04/25 08:38:19;;;;;;;4.10;3.25;;;;;;;;;;5074010;28;20025;-82
2023/04/25 08:40:50;;;;;;;6.43;3.30;;;;;;;;;;5052386;28;20138;-82
2023/04/25 08:43:18;;;;;;;4.00;2.80;;;;;;;;;;5078040;28;20024;-82
2023/04/25 08:45:45;;;;;;;3.70;3.15;;;;;;;;;;5077005;28;20032;-82
2023/04/25 08:48:12;;;;;;;4.60;3.15;;;;;;;;;;5078326;28;20410;-82
2023/04/25 08:50:40;;;;;;;6.18;3.85;;;;;;;;;;5078267;28;20458;-82
2023/04/25 08:53:10;;;;;;;3.67;2.88;;;;;;;;;;5078169;28;20185;-85
2023/04/25 08:55:38;;;;;;;4.00;3.03;;;;;;;;;;5078341;28;20082;-84
2023/04/25 08:58:05;;;;;;;3.72;3.20;;;;;;;;;;5078095;28;20469;-83
2023/04/25 09:00:31;;;;;;;4.22;3.13;;;;;;;;;;5059955;28;20095;-86
2023/04/25 09:02:59;;;;;;;4.45;3.13;;;;;;;;;;5067103;28;20376;-86
2023/04/25 09:05:25;;;;;;;5.22;3.40;;;;;;;;;;5075448;28;20027;-85
2023/04/25 09:07:51;;;;;;;3.78;3.20;;;;;;;;;;5078235;28;20024;-85
2023/04/25 09:10:17;;;;;;;3.72;3.33;;;;;;;;;;5068172;28;20033;-85
2023/04/25 09:12:43;;;;;;;4.38;3.33;;;;;;;;;;5041172;28;20084;-88
2023/04/25 09:15:25;;;;;;;5.05;3.45;;;;;;;;;;5059692;28;20427;-91
2023/04/25 09:17:58;;;;;;;4.00;3.10;;;;;;;;;;5072845;28;20032;-92
2023/04/25 09:20:24;;;;;;;4.85;4.18;;;;;;;;;;5078142;28;20025;-94
2023/04/25 09:23:02;;;;;;;6.20;3.50;;;;;;;;;;5060688;28;20020;-94
2023/04/25 09:25:34;;;;;;;4.47;3.50;;;;;;;;;;5060461;28;20024;-93
2023/04/25 09:28:04;;;;;;;5.28;3.55;;;;;;;;;;5078008;28;20028;-93
2023/04/25 09:30:31;;;;;;;5.95;3.60;;;;;;;;;;5077776;28;20028;-93
2023/04/25 09:32:58;;;;;;;4.00;3.28;;;;;;;;;;5077885;28;20036;-92
2023/04/25 09:35:27;;;;;;;7.82;3.58;;;;;;;;;;5077913;28;20028;-92
2023/04/25 09:37:53;;;;;;;5.32;3.63;;;;;;;;;;5060038;28;20032;-93
2023/04/25 09:40:19;;;;;;;4.03;3.60;;;;;;;;;;5077690;28;20362;-92
2023/04/25 09:42:45;;;;;;;4.82;3.63;;;;;;;;;;5077805;28;20024;-93
2023/04/25 09:45:14;;;;;;;6.25;3.15;;;;;;;;;;5077794;28;20398;-93
2023/04/25 09:47:43;;;;;;;3.88;3.42;;;;;;;;;;5060648;28;20079;-93
2023/04/25 09:50:16;;;;;;;4.80;3.78;;;;;;;;;;5077619;28;20349;-93
2023/04/25 09:52:42;;;;;;;5.40;3.33;;;;;;;;;;5059748;28;20038;-89
2023/04/25 09:55:09;;;;;;;5.25;3.55;;;;;;;;;;5077378;28;20349;-90
2023/04/25 09:57:39;;;;;;;3.45;2.40;;;;;;;;;;5077127;28;20029;-88
2023/04/25 10:00:12;;;;;;;3.75;3.13;;;;;;;;;;5077940;28;20025;-88
2023/04/25 10:02:39;;;;;;;10.05;4.20;;;;;;;;;;5060014;28;20357;-88
2023/04/25 10:05:06;;;;;;;5.45;2.67;;;;;;;;;;5077783;28;20013;-88
2023/04/25 10:07:34;;;;;;;5.75;3.60;;;;;;;;;;5059410;28;20082;-87
2023/04/25 10:10:02;;;;;;;4.28;3.88;;;;;;;;;;5059714;28;20021;-88
2023/04/25 10:12:29;;;;;;;3.92;3.53;;;;;;;;;;5059811;28;20119;-88
2023/04/25 10:14:55;;;;;;;4.63;2.83;;;;;;;;;;5059784;28;20112;-88
2023/04/25 10:17:21;;;;;;;7.63;4.38;;;;;;;;;;5059672;28;20036;-88
2023/04/25 10:19:51;;;;;;;5.15;3.03;;;;;;;;;;5061390;28;20020;-87
2023/04/25 10:22:31;;;;;;;7.93;3.50;;;;;;;;;;5081237;28;20029;-88
2023/04/25 10:24:57;;;;;;;5.88;3.88;;;;;;;;;;5063774;28;20020;-88
2023/04/25 10:27:23;;;;;;;7.05;3.22;;;;;;;;;;5063948;28;20127;-88
2023/04/25 10:30:04;;;;;;;4.05;2.90;;;;;;;;;;5063746;28;20098;-91
2023/04/25 10:32:32;;;;;;;5.75;3.92;;;;;;;;;;5081292;28;20024;-90
2023/04/25 10:34:58;;;;;;;6.72;3.30;;;;;;;;;;5081416;28;20055;-90
2023/04/25 10:37:25;;;;;;;5.80;3.17;;;;;;;;;;5081292;28;20123;-89
2023/04/25 10:39:53;;;;;;;3.58;3.15;;;;;;;;;;5080638;28;20071;-88
2023/04/25 10:42:19;;;;;;;3.65;2.92;;;;;;;;;;5081096;28;20307;-88
2023/04/25 10:45:02;;;;;;;3.17;2.85;;;;;;;;;;5081050;28;20025;-88
2023/04/25 10:47:35;;;;;;;5.00;2.97;;;;;;;;;;5063504;28;20374;-88
2023/04/25 10:50:05;;;;;;;4.15;2.95;;;;;;;;;;5081081;28;20520;-87
2023/04/25 10:52:33;;;;;;;6.00;3.42;;;;;;;;;;5080953;28;20029;-87
2023/04/25 10:55:00;;;;;;;4.32;3.65;;;;;;;;;;5080831;28;20044;-88
2023/04/25 10:57:43;;;;;;;3.72;3.15;;;;;;;;;;5080578;28;20031;-88
2023/04/25 11:00:10;;;;;;;6.47;3.60;;;;;;;;;;5080966;28;20024;-89
2023/04/25 11:02:45;;;;;;;5.93;3.28;;;;;;;;;;5063369;28;20213;-88
2023/04/25 11:05:11;;;;;;;3.80;2.80;;;;;;;;;;5063143;28;20025;-88
2023/04/25 11:07:50;;;;;;;5.47;3.10;;;;;;;;;;5080836;28;20070;-88
2023/04/25 11:10:16;;;;;;;3.53;2.80;;;;;;;;;;5062936;28;20024;-88
2023/04/25 11:12:42;;;;;;;4.55;3.00;;;;;;;;;;5080597;28;20474;-89
2023/04/25 11:15:08;;;;;;;3.22;2.83;;;;;;;;;;5080530;28;20024;-88
2023/04/25 11:17:35;;;;;;;4.28;3.00;;;;;;;;;;5062731;28;20052;-88
2023/04/25 11:20:03;;;;;;;3.42;2.90;;;;;;;;;;5080289;28;20024;-88
2023/04/25 11:22:30;;;;;;;3.15;2.70;;;;;;;;;;5062966;28;20021;-87
2023/04/25 11:24:56;;;;;;;3.10;2.47;;;;;;;;;;5062552;28;20424;-88
2023/04/25 11:27:24;;;;;;;4.40;3.10;;;;;;;;;;5080059;28;20345;-88
2023/04/25 11:29:50;;;;;;;10.93;3.60;;;;;;;;;;5062775;28;20027;-89
2023/04/25 11:32:16;;;;;;;5.07;3.53;;;;;;;;;;5078808;28;20119;-88
2023/04/25 11:34:45;;;;;;;4.30;3.90;;;;;;;;;;5062655;28;20414;-90
2023/04/25 11:37:14;;;;;;;4.10;3.33;;;;;;;;;;5062541;28;20029;-90
2023/04/25 11:39:44;;;;;;;5.20;4.35;;;;;;;;;;5079977;28;20053;-94
2023/04/25 11:42:10;;;;;;;4.68;3.30;;;;;;;;;;5062335;28;20024;-93
2023/04/25 11:44:38;;;;;;;4.85;3.63;;;;;;;;;;5062220;28;20025;-94
2023/04/25 11:47:04;;;;;;;4.95;3.50;;;;;;;;;;5079800;28;20042;-94
2023/04/25 11:49:31;;;;;;;3.53;3.15;;;;;;;;;;5062294;28;20035;-94
2023/04/25 11:51:57;;;;;;;4.70;3.85;;;;;;;;;;5079625;28;20052;-94
2023/04/25 11:54:24;;;;;;;5.75;4.82;;;;;;;;;;5062237;28;20415;-94
2023/04/25 11:56:50;;;;;;;6.03;4.00;;;;;;;;;;5080878;28;20040;-94
2023/04/25 11:59:16;;;;;;;7.70;4.63;;;;;;;;;;5062510;28;20088;-93
2023/04/25 12:01:49;;;;;;;9.40;4.70;;;;;;;;;;5079637;28;20016;-94
2023/04/25 12:04:20;;;;;;;13.68;6.18;;;;;;;;;;5079737;28;20055;-93
2023/04/25 12:06:47;;;;;;;8.80;5.68;;;;;;;;;;5061819;28;20021;-93
2023/04/25 12:09:15;;;;;;;6.78;4.47;;;;;;;;;;5061468;28;20040;-93
2023/04/25 12:12:02;;;;;;;4.10;2.92;;;;;;;;;;5061878;28;20020;-91
2023/04/25 12:14:37;;;;;;;3.58;2.50;;;;;;;;;;5079481;28;20052;-93
2023/04/25 12:17:07;;;;;;;3.00;1.80;;;;;;;;;;5063408;28;20102;-93
2023/04/25 12:19:34;;;;;;;5.20;3.58;;;;;;;;;;5080859;28;20016;-93
2023/04/25 12:22:02;;;;;;;6.00;2.95;;;;;;;;;;5079322;28;20036;-92
2023/04/25 12:24:29;;;;;;;4.32;3.10;;;;;;;;;;5079396;28;20027;-94
2023/04/25 12:27:08;;;;;;;8.38;2.67;;;;;;;;;;5061625;28;20116;-91
2023/04/25 12:29:35;;;;;;;9.50;5.40;;;;;;;;;;5060559;28;20024;-92
2023/04/25 12:32:01;;;;;;;8.68;4.65;;;;;;;;;;5078864;28;20035;-92
2023/04/25 12:34:28;;;;;;;9.65;6.22;;;;;;;;;;5079059;28;20054;-93
2023/04/25 12:36:54;;;;;;;8.30;4.18;;;;;;;;;;5078940;28;20402;-94
2023/04/25 12:39:24;;;;;;;17.27;10.15;;;;;;;;;;5078683;28;20056;-92
2023/04/25 12:41:53;;;;;;;4.40;3.60;;;;;;;;;;5078661;28;20029;-93
2023/04/25 12:44:19;;;;;;;7.85;3.90;;;;;;;;;;5077921;28;20017;-94
2023/04/25 12:46:46;;;;;;;8.55;3.50;;;;;;;;;;5058434;28;20158;-94
2023/04/25 12:49:12;;;;;;;3.28;2.72;;;;;;;;;;5061280;28;20033;-93
2023/04/25 12:51:38;;;;;;;5.20;3.40;;;;;;;;;;5066694;28;20120;-92
2023/04/25 12:54:05;;;;;;;6.65;3.33;;;;;;;;;;5077726;28;20025;-92
2023/04/25 12:56:32;;;;;;;4.18;3.10;;;;;;;;;;5077981;28;20028;-93
2023/04/25 12:58:58;;;;;;;2.45;2.20;;;;;;;;;;5077856;28;20403;-94
2023/04/25 13:01:24;;;;;;;3.45;2.88;;;;;;;;;;5060321;28;20058;-93
2023/04/25 13:03:50;;;;;;;6.40;2.60;;;;;;;;;;5060418;28;20028;-93
2023/04/25 13:06:17;;;;;;;16.45;6.97;;;;;;;;;;5060588;28;20036;-93
2023/04/25 13:08:43;;;;;;;5.40;3.17;;;;;;;;;;5078453;28;20021;-92
2023/04/25 13:11:09;;;;;;;8.20;4.38;;;;;;;;;;5060297;28;20036;-92
2023/04/25 13:13:36;;;;;;;4.38;3.45;;;;;;;;;;5060755;28;20134;-93
2023/04/25 13:16:02;;;;;;;5.32;3.55;;;;;;;;;;5060562;28;20025;-91
2023/04/25 13:18:31;;;;;;;9.27;4.88;;;;;;;;;;5060818;28;20021;-93
2023/04/25 13:20:58;;;;;;;4.93;3.63;;;;;;;;;;5078101;28;20292;-91
2023/04/25 13:23:25;;;;;;;5.82;3.70;;;;;;;;;;5078300;28;20032;-89
2023/04/25 13:25:52;;;;;;;5.60;3.15;;;;;;;;;;5077598;28;20366;-87
2023/04/25 13:28:18;;;;;;;7.55;5.28;;;;;;;;;;5073043;28;20020;-86
2023/04/25 13:33:47;;;;;;;3.13;2.42;;;;;;;;;;5078244;28;20028;-86
2023/04/25 13:36:14;;;;;;;4.93;3.42;;;;;;;;;;5077558;28;20445;-92
2023/04/25 13:38:43;;;;;;;4.93;3.30;;;;;;;;;;5077106;28;20021;-93
2023/04/25 13:41:11;;;;;;;6.70;3.90;;;;;;;;;;5059678;28;20338;-93
2023/04/25 13:43:37;;;;;;;14.05;7.10;;;;;;;;;;5059861;28;20028;-92
2023/04/25 13:46:03;;;;;;;9.77;5.60;;;;;;;;;;5059797;28;20029;-92
2023/04/25 13:48:29;;;;;;;7.05;4.80;;;;;;;;;;5060069;28;20318;-93
2023/04/25 13:50:55;;;;;;;4.78;3.00;;;;;;;;;;5059872;28;20032;-93
2023/04/25 13:53:21;;;;;;;6.90;4.18;;;;;;;;;;5077417;28;20024;-93
2023/04/25 13:55:47;;;;;;;5.55;2.90;;;;;;;;;;5059374;28;20530;-93
2023/04/25 13:58:13;;;;;;;2.90;2.60;;;;;;;;;;5059547;28;20017;-91
2023/04/25 14:03:56;;;;;;;3.42;2.28;;;;;;;;;;5077513;28;20425;-89
2023/04/25 14:06:23;;;;;;;4.15;2.55;;;;;;;;;;5077413;28;20029;-84
2023/04/25 14:08:52;;;;;;;7.82;2.80;;;;;;;;;;5076922;28;20044;-82
2023/04/25 14:11:18;;;;;;;3.60;2.75;;;;;;;;;;5059395;28;20410;-80
2023/04/25 14:13:45;;;;;;;6.50;3.70;;;;;;;;;;5077236;28;20036;-82
2023/04/25 14:16:11;;;;;;;7.03;3.60;;;;;;;;;;5076981;28;20033;-82
2023/04/25 14:18:37;;;;;;;4.35;2.08;;;;;;;;;;5077246;28;20326;-82
2023/04/25 14:21:03;;;;;;;4.22;2.15;;;;;;;;;;5076804;28;20399;-85
2023/04/25 14:23:29;;;;;;;4.05;2.63;;;;;;;;;;5059441;28;20406;-83
2023/04/25 14:25:55;;;;;;;3.28;2.42;;;;;;;;;;5077140;28;20480;-85
2023/04/25 14:28:21;;;;;;;5.15;2.67;;;;;;;;;;5059518;28;20020;-85
2023/04/25 14:30:47;;;;;;;4.53;3.47;;;;;;;;;;5059585;28;20033;-85
2023/04/25 14:33:13;;;;;;;7.47;3.60;;;;;;;;;;5077155;28;20325;-85
2023/04/25 14:35:40;;;;;;;5.35;3.90;;;;;;;;;;5077227;28;20031;-85
2023/04/25 14:38:07;;;;;;;8.07;4.35;;;;;;;;;;5059571;28;20016;-86
2023/04/25 14:40:33;;;;;;;5.53;3.85;;;;;;;;;;5059451;28;20043;-85
2023/04/25 14:42:59;;;;;;;4.35;2.42;;;;;;;;;;5077159;28;20162;-85
2023/04/25 14:45:25;;;;;;;5.03;3.00;;;;;;;;;;5076930;28;20021;-85
2023/04/25 14:47:51;;;;;;;5.28;2.35;;;;;;;;;;5076735;28;20021;-85
2023/04/25 14:50:18;;;;;;;4.80;2.65;;;;;;;;;;5077088;28;20453;-85
2023/04/25 14:52:44;;;;;;;2.15;1.75;;;;;;;;;;5076988;28;20112;-85
2023/04/25 14:55:11;;;;;;;3.47;2.47;;;;;;;;;;5077044;28;20020;-85
2023/04/25 14:57:39;;;;;;;3.78;2.60;;;;;;;;;;5077058;28;20119;-85
2023/04/25 15:00:09;;;;;;;5.38;3.17;;;;;;;;;;5077031;28;20027;-85
2023/04/25 15:02:35;;;;;;;3.97;3.10;;;;;;;;;;5077192;28;20062;-85
2023/04/25 15:05:01;;;;;;;4.03;2.97;;;;;;;;;;5059463;28;20037;-85
2023/04/25 15:07:27;;;;;;;4.88;3.40;;;;;;;;;;5062873;28;20424;-85
2023/04/25 15:09:55;;;;;;;7.03;4.18;;;;;;;;;;5080507;28;20029;-85
2023/04/25 15:12:21;;;;;;;4.50;3.03;;;;;;;;;;5080665;28;20037;-85